Time;durP1;ratioP1;P1;durP2;ratioP2;P2;SDS_P1;SDS_P2;PMS_P1;PMS_P2;Temp;Humidity;BMP_temperature;BMP_pressure;BME280_temperature;BME280_humidity;BME280_pressure;Samples;Min_cycle;Max_cycle;Signal;HPM_P1;HPM_P2
2022/04/25 00:00:52;;;;;;;;;11.00;11.00;;;;;13.91;52.04;99978.97;5056592;28;46224;-81
2022/04/25 00:03:17;;;;;;;;;12.25;9.50;;;;;13.95;51.53;99969.94;5056261;28;45425;-81
2022/04/25 00:05:43;;;;;;;;;13.25;12.25;;;;;13.90;50.91;99966.63;5045501;28;45463;-80
2022/04/25 00:08:08;;;;;;;;;13.00;13.00;;;;;13.93;50.91;99968.28;5063515;28;45492;-81
2022/04/25 00:10:33;;;;;;;;;12.75;11.50;;;;;13.92;51.42;99969.19;5061876;28;45540;-80
2022/04/25 00:12:59;;;;;;;;;16.50;8.50;;;;;13.93;51.20;99965.63;5068588;28;45592;-80
2022/04/25 00:15:27;;;;;;;;;15.50;13.75;;;;;13.92;50.90;99974.50;5076803;28;45409;-80
2022/04/25 00:17:52;;;;;;;;;15.50;10.00;;;;;13.89;51.41;99969.34;5079159;27;45594;-80
2022/04/25 00:20:18;;;;;;;;;13.75;13.00;;;;;13.87;51.49;99972.06;5097697;27;45433;-80
2022/04/25 00:22:45;;;;;;;;;9.50;4.00;;;;;13.78;50.94;99956.53;5085270;27;45437;-80
2022/04/25 00:25:10;;;;;;;;;7.50;7.50;;;;;13.77;51.12;99952.13;5076192;28;45374;-80
2022/04/25 00:27:36;;;;;;;;;15.75;11.75;;;;;13.73;50.98;99963.84;5057860;28;45536;-80
2022/04/25 00:30:01;;;;;;;;;8.00;7.00;;;;;13.73;50.69;99966.50;5076021;28;46176;-80
2022/04/25 00:32:27;;;;;;;;;15.75;10.25;;;;;13.71;51.22;99965.69;5084474;27;45588;-80
2022/04/25 00:34:52;;;;;;;;;13.00;11.50;;;;;13.56;51.19;99951.25;5100480;27;45516;-81
2022/04/25 00:37:17;;;;;;;;;11.00;10.00;;;;;13.49;51.72;99955.97;5065567;28;45580;-81
2022/04/25 00:39:43;;;;;;;;;11.00;11.00;;;;;13.43;51.69;99956.22;5083361;27;45405;-80
2022/04/25 00:42:08;;;;;;;;;13.75;12.00;;;;;13.41;52.10;99968.72;5096839;27;45485;-80
2022/04/25 00:44:33;;;;;;;;;14.00;13.00;;;;;13.40;51.71;99961.66;5075377;27;45437;-80
2022/04/25 00:47:00;;;;;;;;;11.25;11.25;;;;;13.36;51.65;99965.34;5076013;28;45481;-80
2022/04/25 00:49:26;;;;;;;;;10.75;9.00;;;;;13.39;52.15;99960.81;5076616;28;45762;-79
2022/04/25 00:51:52;;;;;;;;;16.50;15.00;;;;;13.40;51.72;99965.16;5076536;28;45348;-79
2022/04/25 00:54:23;;;;;;;;;13.00;12.25;;;;;13.42;51.57;99973.94;5057817;28;45543;-80
2022/04/25 00:56:49;;;;;;;;;12.00;8.50;;;;;13.44;51.70;99968.59;5095387;27;45478;-79
2022/04/25 00:59:17;;;;;;;;;12.75;12.50;;;;;13.43;51.76;99980.13;5078355;27;47479;-80
2022/04/25 01:01:43;;;;;;;;;17.25;13.25;;;;;13.44;51.70;99973.88;5099412;27;45394;-80
2022/04/25 01:04:09;;;;;;;;;10.25;10.00;;;;;13.37;51.95;99961.78;5080286;27;45423;-79
2022/04/25 01:06:34;;;;;;;;;16.75;16.00;;;;;13.38;52.18;99976.78;5102615;27;45520;-81
2022/04/25 01:09:00;;;;;;;;;9.00;9.00;;;;;13.30;52.08;99966.44;5097530;27;46297;-80
2022/04/25 01:11:25;;;;;;;;;10.00;8.00;;;;;13.33;51.49;99977.84;5097040;27;45491;-80
2022/04/25 01:13:51;;;;;;;;;8.25;8.25;;;;;13.39;52.11;99982.03;5083343;27;45420;-80
2022/04/25 01:16:17;;;;;;;;;12.00;12.00;;;;;13.33;52.19;99971.66;5076570;28;45284;-79
2022/04/25 01:18:42;;;;;;;;;13.50;10.00;;;;;13.26;52.17;99971.00;5076725;28;45295;-81
2022/04/25 01:21:11;;;;;;;;;9.75;9.75;;;;;13.20;52.45;99960.66;5075635;28;45307;-80
2022/04/25 01:29:05;;;;;;;;;12.50;12.50;;;;;13.21;52.24;99962.38;5053459;28;45753;-80
2022/04/25 01:31:31;;;;;;;;;7.00;7.00;;;;;13.18;52.70;99962.50;5056483;28;45390;-80
2022/04/25 01:33:56;;;;;;;;;6.75;6.75;;;;;13.19;52.61;99969.53;5069994;28;45416;-79
2022/04/25 01:36:25;;;;;;;;;7.50;7.00;;;;;13.15;52.79;99965.28;5083306;27;45542;-80
2022/04/25 01:38:52;;;;;;;;;14.50;10.00;;;;;13.10;53.08;99960.16;5078468;28;45512;-80
2022/04/25 01:41:17;;;;;;;;;11.50;9.75;;;;;13.11;53.02;99975.16;5064606;28;45365;-80
2022/04/25 01:43:43;;;;;;;;;10.25;7.75;;;;;13.06;53.08;99973.63;5044857;28;45338;-80
2022/04/25 01:46:08;;;;;;;;;11.75;9.25;;;;;12.98;53.43;99966.81;5055440;28;45580;-80
2022/04/25 01:48:33;;;;;;;;;10.00;10.00;;;;;12.97;53.52;99972.19;5054419;28;46006;-80
2022/04/25 01:50:59;;;;;;;;;14.50;10.50;;;;;12.97;53.75;99967.75;5056262;28;45452;-81
2022/04/25 01:53:24;;;;;;;;;12.50;12.50;;;;;12.85;54.05;99976.19;5082599;28;45470;-80
2022/04/25 01:55:50;;;;;;;;;11.00;10.00;;;;;12.72;54.67;99972.25;5076922;28;45381;-80
2022/04/25 01:58:15;;;;;;;;;9.50;8.00;;;;;12.62;54.30;99975.28;5076090;28;45903;-80
2022/04/25 02:00:41;;;;;;;;;0.75;0.00;;;;;12.60;55.22;99981.53;5071462;28;45541;-80
2022/04/25 02:03:06;;;;;;;;;7.00;7.00;;;;;12.54;54.95;99977.38;5054957;28;45448;-79
2022/04/25 02:05:31;;;;;;;;;10.25;8.50;;;;;12.47;55.42;99981.16;5059127;28;45554;-80
2022/04/25 02:07:57;;;;;;;;;13.00;11.50;;;;;12.48;55.59;99988.19;5060038;28;45481;-80
2022/04/25 02:10:22;;;;;;;;;15.50;12.50;;;;;12.45;55.20;99977.72;5037541;28;45494;-80
2022/04/25 02:12:48;;;;;;;;;9.50;9.50;;;;;12.48;55.44;99987.31;5054620;28;45550;-80
2022/04/25 02:15:13;;;;;;;;;18.00;11.00;;;;;12.42;55.64;99985.78;5054322;28;45513;-80
2022/04/25 02:17:41;;;;;;;;;15.25;11.50;;;;;12.37;56.04;99995.66;5053732;28;45551;-80
2022/04/25 02:20:08;;;;;;;;;15.25;12.00;;;;;12.36;56.14;99993.91;5060601;28;45403;-78
2022/04/25 02:22:35;;;;;;;;;14.00;9.75;;;;;12.39;56.07;100004.41;5054283;28;45516;-77
2022/04/25 02:25:01;;;;;;;;;17.00;13.00;;;;;12.34;56.03;99999.28;5053047;28;45561;-78
2022/04/25 02:27:26;;;;;;;;;16.75;12.50;;;;;12.33;56.31;100005.53;5035517;28;46405;-77
2022/04/25 02:29:57;;;;;;;;;18.50;12.75;;;;;12.23;56.84;99994.38;5055791;28;45528;-77
2022/04/25 02:32:23;;;;;;;;;12.00;11.50;;;;;12.20;57.10;99998.91;5055679;28;45453;-78
2022/04/25 02:34:53;;;;;;;;;20.00;15.25;;;;;12.19;56.98;99995.41;5061107;28;45636;-77
2022/04/25 02:37:18;;;;;;;;;10.75;9.50;;;;;12.20;56.90;99996.28;5059282;28;45352;-77
2022/04/25 02:39:44;;;;;;;;;13.00;9.25;;;;;12.21;56.78;99996.22;5036222;28;45370;-79
2022/04/25 02:42:09;;;;;;;;;8.00;8.00;;;;;12.19;56.92;100000.72;5077426;28;45343;-77
2022/04/25 02:44:34;;;;;;;;;12.00;6.00;;;;;12.19;56.79;100000.72;5043488;28;45504;-76
2022/04/25 02:47:00;;;;;;;;;16.25;9.75;;;;;12.19;56.98;99999.84;5056417;28;46140;-78
2022/04/25 02:49:25;;;;;;;;;15.25;12.00;;;;;12.14;57.28;100004.44;5038601;28;45559;-77
2022/04/25 02:51:50;;;;;;;;;12.00;12.00;;;;;12.12;57.42;100007.16;5075703;28;45493;-77
2022/04/25 02:54:16;;;;;;;;;8.00;7.25;;;;;12.10;57.50;99998.41;5069906;28;45512;-78
2022/04/25 02:56:41;;;;;;;;;14.00;10.50;;;;;12.11;57.52;100004.56;5040401;28;48314;-77
2022/04/25 02:59:07;;;;;;;;;13.00;11.00;;;;;12.08;57.90;99994.91;5038213;28;45380;-77
2022/04/25 03:01:32;;;;;;;;;11.50;9.00;;;;;12.11;57.66;99999.25;5057128;28;45315;-77
2022/04/25 03:03:58;;;;;;;;;12.00;12.00;;;;;12.09;58.03;100001.97;5058338;28;45432;-78
2022/04/25 03:06:23;;;;;;;;;13.00;10.00;;;;;12.07;58.04;100003.78;5042253;28;46636;-76
2022/04/25 03:08:49;;;;;;;;;14.00;12.50;;;;;11.98;58.37;99999.69;5059170;28;45418;-77
2022/04/25 03:11:14;;;;;;;;;12.25;9.25;;;;;11.98;58.71;100017.34;5050297;28;45505;-78
2022/04/25 03:13:39;;;;;;;;;13.00;11.50;;;;;11.88;58.81;100008.84;5071220;28;45469;-78
2022/04/25 03:16:06;;;;;;;;;16.00;10.00;;;;;11.81;59.88;100015.25;5064529;28;45956;-78
2022/04/25 03:18:32;;;;;;;;;12.50;11.50;;;;;11.74;60.10;100014.59;5085475;27;45393;-78
2022/04/25 03:20:59;;;;;;;;;13.75;10.00;;;;;11.67;60.28;100016.56;5086772;27;45419;-79
2022/04/25 03:23:25;;;;;;;;;12.50;11.75;;;;;11.63;60.48;100011.44;5076134;27;45737;-78
2022/04/25 03:25:52;;;;;;;;;13.50;11.50;;;;;11.61;60.58;100010.63;5076312;28;45344;-77
2022/04/25 03:28:18;;;;;;;;;12.25;10.50;;;;;11.56;60.48;100008.13;5057826;28;45490;-77
2022/04/25 03:30:43;;;;;;;;;15.75;12.75;;;;;11.60;60.61;100011.53;5080675;27;45426;-78
2022/04/25 03:33:12;;;;;;;;;15.75;9.50;;;;;11.62;60.48;100022.97;5096873;27;45516;-78
2022/04/25 03:35:43;;;;;;;;;15.00;12.00;;;;;11.59;60.71;100015.13;5106840;27;45406;-77
2022/04/25 03:38:09;;;;;;;;;15.25;11.00;;;;;11.59;61.19;100023.06;5115448;27;45284;-78
2022/04/25 03:40:35;;;;;;;;;16.50;12.75;;;;;11.56;60.98;100026.66;5081736;27;45472;-77
2022/04/25 03:43:01;;;;;;;;;8.00;8.00;;;;;11.53;61.41;100019.69;5096013;27;45363;-78
2022/04/25 03:45:26;;;;;;;;;16.00;14.75;;;;;11.52;61.42;100019.72;5096421;27;45505;-78
2022/04/25 03:47:53;;;;;;;;;21.75;18.50;;;;;11.46;61.90;100018.13;5096390;27;45363;-78
2022/04/25 03:50:18;;;;;;;;;15.50;13.00;;;;;11.42;62.21;100021.81;5091946;27;45540;-77
2022/04/25 03:52:45;;;;;;;;;18.75;12.75;;;;;11.42;61.93;100032.41;5075486;27;45620;-77
2022/04/25 03:58:00;;;;;;;;;14.75;12.50;;;;;11.41;62.16;100040.38;5077837;28;45637;-78
2022/04/25 04:00:26;;;;;;;;;14.00;8.75;;;;;11.41;62.00;100029.81;5081647;27;45418;-79
2022/04/25 04:02:52;;;;;;;;;17.50;13.00;;;;;11.43;62.59;100034.13;5093825;27;45600;-77
2022/04/25 04:05:18;;;;;;;;;15.00;12.25;;;;;11.39;62.32;100043.09;5059038;28;46201;-77
2022/04/25 04:07:45;;;;;;;;;12.00;12.00;;;;;11.33;62.71;100030.91;5080284;28;45305;-78
2022/04/25 04:10:10;;;;;;;;;10.75;10.25;;;;;11.38;62.85;100033.41;5076636;27;45394;-78
2022/04/25 04:12:36;;;;;;;;;13.00;13.00;;;;;11.38;62.70;100044.00;5077011;28;45517;-77
2022/04/25 04:15:05;;;;;;;;;16.25;13.00;;;;;11.33;62.77;100038.84;5075805;27;45465;-77
2022/04/25 04:17:34;;;;;;;;;15.25;14.50;;;;;11.31;62.97;100043.34;5075942;28;45457;-78
2022/04/25 04:20:00;;;;;;;;;16.00;15.00;;;;;11.30;63.25;100043.38;5075445;27;45430;-77
2022/04/25 04:22:30;;;;;;;;;15.50;9.50;;;;;11.23;63.29;100039.19;5074988;27;45750;-78
2022/04/25 04:25:12;;;;;;;;;12.00;10.75;;;;;11.22;63.23;100050.66;5093361;27;45538;-77
2022/04/25 04:27:41;;;;;;;;;11.50;9.25;;;;;11.22;63.58;100061.25;5077895;27;45324;-77
2022/04/25 04:30:12;;;;;;;;;24.50;16.50;;;;;11.08;63.82;100054.59;5095322;27;45412;-80
2022/04/25 04:32:40;;;;;;;;;19.00;15.00;;;;;10.99;64.26;100045.19;5077505;28;45586;-80
2022/04/25 04:35:08;;;;;;;;;19.00;15.00;;;;;11.01;64.41;100064.50;5080995;27;45480;-81
2022/04/25 04:37:34;;;;;;;;;17.25;13.00;;;;;11.00;64.36;100067.19;5103669;27;45429;-81
2022/04/25 04:42:44;;;;;;;;;14.00;9.75;;;;;11.03;64.46;100069.75;5094142;27;45425;-80
2022/04/25 04:45:11;;;;;;;;;21.50;16.00;;;;;11.06;64.11;100080.22;5096460;27;45484;-81
2022/04/25 04:47:38;;;;;;;;;19.25;18.00;;;;;11.02;64.53;100083.88;5116997;27;45449;-80
2022/04/25 04:50:05;;;;;;;;;20.25;18.00;;;;;11.00;64.44;100077.78;5085387;27;45401;-80
2022/04/25 04:52:31;;;;;;;;;17.50;14.75;;;;;10.84;64.48;100054.44;5097306;27;45478;-81
2022/04/25 04:54:56;;;;;;;;;17.25;12.25;;;;;10.96;64.87;100086.69;5096734;27;46603;-79
2022/04/25 04:57:22;;;;;;;;;24.25;15.25;;;;;10.92;65.15;100085.09;5096391;27;45476;-80
2022/04/25 04:59:47;;;;;;;;;24.25;17.50;;;;;10.91;65.26;100088.63;5096390;27;45491;-81
2022/04/25 05:02:16;;;;;;;;;27.75;19.00;;;;;10.87;65.41;100097.53;5095786;27;45413;-80
2022/04/25 05:04:43;;;;;;;;;18.00;16.25;;;;;10.83;65.13;100100.28;5096502;27;45407;-80
2022/04/25 05:07:09;;;;;;;;;20.00;18.25;;;;;10.84;65.59;100101.13;5103616;27;45322;-80
2022/04/25 05:09:34;;;;;;;;;23.25;19.50;;;;;10.80;65.46;100105.66;5097826;27;45376;-78
2022/04/25 05:11:59;;;;;;;;;27.00;25.00;;;;;10.76;65.56;100104.00;5079449;27;45407;-80
2022/04/25 05:14:25;;;;;;;;;20.75;18.00;;;;;10.79;66.03;100109.19;5091871;27;46130;-79
2022/04/25 05:16:50;;;;;;;;;26.75;21.25;;;;;10.81;65.92;100109.16;5078146;27;45414;-80
2022/04/25 05:19:16;;;;;;;;;23.00;18.75;;;;;10.81;65.88;100117.97;5075593;28;45374;-79
2022/04/25 05:21:41;;;;;;;;;24.50;21.75;;;;;10.78;65.92;100109.25;5087718;27;45396;-80
2022/04/25 05:24:06;;;;;;;;;30.75;26.50;;;;;10.79;66.19;100110.97;5082680;27;45499;-81
2022/04/25 05:26:32;;;;;;;;;31.50;27.25;;;;;10.86;65.84;100127.56;5076231;28;45609;-80
2022/04/25 05:28:57;;;;;;;;;27.75;24.00;;;;;11.00;65.53;100134.16;5076215;28;45474;-80
2022/04/25 05:31:24;;;;;;;;;15.75;15.75;;;;;11.32;64.76;100132.34;5075585;28;45616;-80
2022/04/25 05:33:49;;;;;;;;;24.50;23.50;;;;;11.27;64.55;100117.56;5056458;28;46441;-81
2022/04/25 05:36:15;;;;;;;;;27.50;23.00;;;;;11.25;64.48;100122.00;5083133;27;45382;-81
2022/04/25 05:38:40;;;;;;;;;21.75;15.75;;;;;11.23;64.27;100131.78;5082134;28;45511;-81
2022/04/25 05:41:07;;;;;;;;;35.50;25.75;;;;;11.28;64.33;100145.72;5064539;27;45438;-81
2022/04/25 05:43:33;;;;;;;;;21.75;20.00;;;;;11.27;64.51;100144.00;5097032;27;45549;-81
2022/04/25 05:45:58;;;;;;;;;23.50;23.50;;;;;11.26;64.39;100147.56;5095577;27;45273;-81
2022/04/25 05:53:52;;;;;;;;;30.00;25.00;;;;;11.26;64.30;100147.56;5095415;27;45532;-81
2022/04/25 05:56:17;;;;;;;;;21.00;16.50;;;;;11.23;64.50;100153.78;5078137;27;45528;-82
2022/04/25 05:58:42;;;;;;;;;22.50;17.50;;;;;11.28;64.37;100161.59;5096117;27;45470;-81
2022/04/25 06:01:07;;;;;;;;;24.75;24.75;;;;;11.29;64.17;100155.41;5087447;27;46142;-80
2022/04/25 06:03:33;;;;;;;;;31.50;25.50;;;;;11.25;64.52;100159.03;5076753;28;46175;-81
2022/04/25 06:05:59;;;;;;;;;27.75;24.75;;;;;11.39;64.20;100170.09;5090397;27;45442;-79
2022/04/25 06:08:24;;;;;;;;;35.75;27.75;;;;;11.40;64.11;100168.31;5100720;27;45482;-80
2022/04/25 06:10:49;;;;;;;;;36.25;30.75;;;;;11.44;63.68;100178.75;5092522;27;46788;-80
2022/04/25 06:13:15;;;;;;;;;26.25;25.00;;;;;11.55;63.50;100170.47;5074892;28;45485;-79
2022/04/25 06:15:40;;;;;;;;;32.50;22.75;;;;;11.70;62.93;100179.75;5082463;27;45443;-81
2022/04/25 06:18:06;;;;;;;;;38.25;26.75;;;;;11.79;62.54;100173.31;5100155;27;45440;-81
2022/04/25 06:20:31;;;;;;;;;34.75;30.75;;;;;11.78;62.31;100171.56;5079486;27;45523;-81
2022/04/25 06:22:59;;;;;;;;;25.75;25.50;;;;;11.93;62.28;100167.59;5062145;28;46673;-80
2022/04/25 06:25:27;;;;;;;;;38.50;32.00;;;;;12.40;61.34;100170.47;5060248;28;46081;-80
2022/04/25 06:27:52;;;;;;;;;25.00;25.00;;;;;13.01;58.41;100158.63;5079037;28;45386;-79
2022/04/25 06:30:23;;;;;;;;;33.00;30.50;;;;;13.32;57.75;100161.84;5085361;27;45544;-81
2022/04/25 06:32:48;;;;;;;;;32.25;30.50;;;;;13.95;56.34;100170.97;5092586;27;46246;-80
2022/04/25 06:35:14;;;;;;;;;36.25;29.00;;;;;14.08;55.25;100166.03;5091916;27;45398;-80
2022/04/25 06:37:39;;;;;;;;;43.75;37.00;;;;;13.82;55.62;100166.16;5091517;27;45535;-80
2022/04/25 06:40:06;;;;;;;;;36.25;30.00;;;;;13.50;56.18;100178.06;5090450;27;45350;-79
2022/04/25 06:42:32;;;;;;;;;36.25;33.75;;;;;13.30;56.26;100181.41;5108065;27;45393;-80
2022/04/25 06:44:57;;;;;;;;;33.25;30.25;;;;;13.83;55.72;100182.94;5104524;27;45434;-79
2022/04/25 06:47:23;;;;;;;;;31.75;27.75;;;;;14.03;55.02;100168.88;5062773;28;45374;-80
2022/04/25 06:49:48;;;;;;;;;40.25;34.00;;;;;14.47;53.79;100183.91;5077754;28;45324;-79
2022/04/25 06:52:14;;;;;;;;;39.50;35.75;;;;;15.00;52.90;100187.84;5091838;27;46315;-81
2022/04/25 06:54:39;;;;;;;;;40.75;34.75;;;;;15.68;50.57;100182.97;5079535;27;45469;-81
2022/04/25 06:57:06;;;;;;;;;33.50;29.50;;;;;16.22;48.91;100190.22;5099955;27;45485;-81
2022/04/25 06:59:31;;;;;;;;;42.50;36.25;;;;;16.68;47.82;100193.22;5100136;27;45437;-81
2022/04/25 07:01:57;;;;;;;;;29.50;27.25;;;;;16.78;47.46;100182.94;5083874;27;46281;-80
2022/04/25 07:04:23;;;;;;;;;37.00;35.75;;;;;16.31;47.37;100174.59;5079155;28;45421;-82
2022/04/25 07:06:48;;;;;;;;;35.25;34.50;;;;;16.13;48.15;100178.19;5088778;27;45636;-82
2022/04/25 07:09:14;;;;;;;;;30.25;26.25;;;;;16.15;48.29;100197.63;5089219;27;45429;-81
2022/04/25 07:11:43;;;;;;;;;42.75;36.00;;;;;16.50;47.54;100195.00;5086207;27;45406;-78
2022/04/25 07:14:09;;;;;;;;;39.00;33.50;;;;;17.08;46.32;100198.31;5086785;27;45491;-82
2022/04/25 07:16:34;;;;;;;;;33.75;30.50;;;;;17.09;45.64;100192.88;5082519;27;45489;-80
2022/04/25 07:19:00;;;;;;;;;36.75;27.00;;;;;17.27;45.60;100196.38;5085862;27;45419;-81
2022/04/25 07:29:37;;;;;;;;;48.25;35.25;;;;;17.89;43.75;100203.72;5098506;27;45279;-82
2022/04/25 07:32:02;;;;;;;;;36.00;30.00;;;;;18.56;43.46;100200.78;5097313;27;46295;-82
2022/04/25 07:34:28;;;;;;;;;29.75;25.25;;;;;18.81;41.93;100200.16;5095333;27;45589;-78
2022/04/25 07:36:53;;;;;;;;;34.25;30.50;;;;;18.46;42.49;100204.00;5086554;27;45447;-80
2022/04/25 07:39:20;;;;;;;;;47.75;41.25;;;;;18.25;42.78;100219.47;5062180;28;45400;-80
2022/04/25 07:41:47;;;;;;;;;42.25;39.25;;;;;17.95;43.41;100211.41;5074799;27;47196;-78
2022/04/25 07:44:12;;;;;;;;;40.75;37.00;;;;;17.82;43.49;100205.84;5092449;27;45441;-79
2022/04/25 07:46:40;;;;;;;;;34.50;29.00;;;;;17.59;43.62;100215.13;5078162;27;45610;-79
2022/04/25 07:49:07;;;;;;;;;35.50;33.50;;;;;17.22;44.45;100230.50;5076097;28;45539;-80
2022/04/25 07:51:33;;;;;;;;;9.50;6.00;;;;;16.89;45.07;100225.13;5076675;28;45494;-78
2022/04/25 07:53:58;;;;;;;;;38.00;35.00;;;;;16.89;45.57;100233.97;5076252;28;45295;-80
2022/04/25 07:56:24;;;;;;;;;38.50;31.00;;;;;17.16;45.16;100231.66;5056690;28;45307;-79
2022/04/25 07:58:49;;;;;;;;;35.25;33.00;;;;;17.57;44.83;100231.25;5075949;28;45401;-79
2022/04/25 08:01:15;;;;;;;;;38.00;32.00;;;;;17.71;43.73;100227.81;5084944;27;45489;-79
2022/04/25 08:03:42;;;;;;;;;38.75;34.75;;;;;17.77;43.63;100230.16;5098013;27;45612;-79
2022/04/25 08:06:07;;;;;;;;;40.00;33.75;;;;;17.96;43.30;100236.31;5080943;27;45541;-78
2022/04/25 08:08:32;;;;;;;;;34.75;32.75;;;;;17.97;43.17;100235.38;5079957;28;45358;-79
2022/04/25 08:10:58;;;;;;;;;40.25;31.50;;;;;17.90;43.25;100242.84;5076039;27;45453;-79
2022/04/25 08:19:09;;;;;;;;;38.00;31.50;;;;;18.45;41.98;100244.22;5033241;28;45526;-79
2022/04/25 08:21:36;;;;;;;;;39.00;34.25;;;;;18.35;42.01;100248.38;5017058;28;45713;-79
2022/04/25 08:24:02;;;;;;;;;18.00;12.25;;;;;17.75;42.91;100245.41;4996799;28;45856;-79
2022/04/25 08:26:27;;;;;;;;;33.00;28.50;;;;;17.36;43.77;100248.44;5012468;28;45415;-79
2022/04/25 08:28:54;;;;;;;;;38.00;32.25;;;;;17.97;43.29;100251.41;5012530;28;45472;-79
2022/04/25 08:31:21;;;;;;;;;44.25;35.75;;;;;18.28;42.79;100253.19;5013572;28;45477;-80
2022/04/25 08:33:48;;;;;;;;;38.75;29.50;;;;;18.72;41.59;100251.56;5012550;28;45591;-79
2022/04/25 08:36:13;;;;;;;;;40.50;35.50;;;;;18.57;41.33;100246.19;5036953;28;45483;-82
2022/04/25 08:38:43;;;;;;;;;40.75;35.00;;;;;18.43;41.43;100254.13;5019701;28;45571;-80
2022/04/25 08:41:10;;;;;;;;;35.00;31.50;;;;;18.58;41.86;100261.25;5014047;28;45729;-80
2022/04/25 08:43:38;;;;;;;;;37.25;31.50;;;;;18.86;40.76;100262.38;5012532;28;45386;-79
2022/04/25 08:46:05;;;;;;;;;33.75;25.50;;;;;18.55;40.94;100261.44;5027707;28;45672;-77
2022/04/25 08:48:32;;;;;;;;;31.50;30.75;;;;;18.67;41.31;100269.72;5017748;28;45555;-79
2022/04/25 08:50:58;;;;;;;;;32.50;31.25;;;;;19.18;40.58;100271.13;5012005;28;45557;-79
2022/04/25 08:53:25;;;;;;;;;29.75;28.25;;;;;19.68;39.71;100263.59;5050128;28;45474;-79
2022/04/25 08:55:53;;;;;;;;;46.50;34.50;;;;;19.93;38.75;100261.22;5074216;27;45416;-79
2022/04/25 08:58:20;;;;;;;;;30.00;28.75;;;;;20.29;38.12;100271.38;5075967;27;45583;-80
2022/04/25 09:00:45;;;;;;;;;34.75;29.00;;;;;20.64;37.16;100262.81;5096955;27;45434;-78
2022/04/25 09:03:12;;;;;;;;;30.00;27.25;;;;;20.87;37.24;100279.25;5084149;27;45451;-78
2022/04/25 09:05:38;;;;;;;;;41.50;35.25;;;;;21.18;36.77;100261.00;5079560;28;45516;-80
2022/04/25 09:08:04;;;;;;;;;31.50;28.25;;;;;21.40;35.77;100266.59;5079167;28;45453;-80
2022/04/25 09:10:30;;;;;;;;;36.75;29.00;;;;;21.38;35.53;100273.03;5081103;27;45425;-79
2022/04/25 09:12:58;;;;;;;;;28.50;25.75;;;;;20.97;36.39;100264.22;5094511;27;45468;-77
2022/04/25 09:15:24;;;;;;;;;30.00;30.00;;;;;21.42;35.89;100267.38;5095143;27;45312;-77
2022/04/25 09:17:53;;;;;;;;;32.00;29.00;;;;;22.02;35.01;100262.25;5084087;27;45515;-77
2022/04/25 09:20:20;;;;;;;;;28.00;24.75;;;;;22.41;34.42;100252.25;5078693;27;45522;-76
2022/04/25 09:22:46;;;;;;;;;32.25;28.00;;;;;22.51;33.69;100261.31;5094933;27;45362;-76
2022/04/25 09:25:15;;;;;;;;;30.75;25.00;;;;;22.54;33.74;100276.41;5079904;27;45438;-78
2022/04/25 09:27:41;;;;;;;;;33.00;28.00;;;;;22.60;33.78;100269.72;5081954;27;45510;-76
2022/04/25 09:30:18;;;;;;;;;33.50;28.75;;;;;22.65;33.57;100267.50;5094510;27;45498;-79
2022/04/25 09:32:44;;;;;;;;;27.50;24.50;;;;;23.05;32.97;100281.50;5076557;27;45432;-77
2022/04/25 09:35:28;;;;;;;;;21.50;21.50;;;;;23.14;32.25;100271.88;5092910;27;45315;-78
2022/04/25 09:37:53;;;;;;;;;33.00;25.25;;;;;23.08;32.93;100280.41;5076847;27;45389;-75
2022/04/25 09:40:21;;;;;;;;;26.50;21.00;;;;;23.32;32.37;100280.38;5084693;27;45627;-76
2022/04/25 09:42:48;;;;;;;;;27.50;25.50;;;;;23.02;32.74;100270.13;5095411;27;45366;-78
2022/04/25 09:45:15;;;;;;;;;27.25;23.50;;;;;23.01;32.48;100289.94;5094743;27;45345;-78
2022/04/25 09:47:41;;;;;;;;;25.50;24.75;;;;;22.94;32.70;100280.59;5088239;27;45537;-77
2022/04/25 09:50:12;;;;;;;;;27.50;25.75;;;;;23.06;32.35;100274.25;5073014;28;46256;-77
2022/04/25 09:53:00;;;;;;;;;26.25;24.50;;;;;23.10;32.54;100288.41;5073515;27;45469;-77
2022/04/25 09:55:31;;;;;;;;;34.00;25.50;;;;;23.12;32.33;100297.22;5073681;28;45461;-78
2022/04/25 09:57:57;;;;;;;;;25.50;24.50;;;;;23.27;32.07;100287.94;5074296;28;45331;-77
2022/04/25 10:00:33;;;;;;;;;29.75;27.00;;;;;23.21;32.10;100283.88;5055516;28;46104;-78
2022/04/25 10:03:01;;;;;;;;;22.75;14.00;;;;;23.20;32.22;100287.59;5073302;27;45424;-78
2022/04/25 10:05:47;;;;;;;;;25.75;21.25;;;;;23.36;31.59;100292.63;5080501;27;45461;-78
2022/04/25 10:08:16;;;;;;;;;29.00;26.25;;;;;23.29;32.04;100287.84;5085072;27;45573;-78
2022/04/25 10:10:57;;;;;;;;;24.50;22.50;;;;;23.74;31.73;100293.28;5083423;27;45610;-78
2022/04/25 10:13:24;;;;;;;;;24.00;22.25;;;;;24.05;30.85;100288.13;5076418;27;45492;-80
2022/04/25 10:15:50;;;;;;;;;26.75;23.75;;;;;24.06;30.93;100290.69;5094902;27;45459;-78
2022/04/25 10:18:15;;;;;;;;;28.00;25.00;;;;;23.82;30.93;100295.34;5076374;27;45564;-78
2022/04/25 10:20:44;;;;;;;;;26.25;25.75;;;;;23.80;30.86;100295.47;5052463;28;46154;-78
2022/04/25 10:23:11;;;;;;;;;23.25;23.25;;;;;23.63;31.19;100293.28;5053591;28;45509;-78
2022/04/25 10:25:39;;;;;;;;;21.00;18.00;;;;;23.99;31.04;100294.91;5052520;28;45427;-79
2022/04/25 10:28:13;;;;;;;;;23.75;21.00;;;;;24.17;30.68;100292.53;5049508;28;45520;-78
2022/04/25 10:30:44;;;;;;;;;26.00;25.50;;;;;23.66;30.85;100287.66;5073583;28;46315;-77
2022/04/25 10:33:17;;;;;;;;;23.00;21.50;;;;;23.49;31.18;100300.63;5074508;28;45409;-77
2022/04/25 10:35:44;;;;;;;;;20.00;20.00;;;;;23.25;31.49;100295.31;5073794;27;45518;-78
2022/04/25 10:38:50;;;;;;;;;18.75;18.50;;;;;23.16;31.46;100307.66;5059076;28;45551;-77
2022/04/25 10:44:18;;;;;;;;;24.50;22.25;;;;;23.39;30.40;100299.63;5053067;28;45518;-79
2022/04/25 10:47:08;;;;;;;;;23.50;19.00;;;;;23.41;30.12;100294.97;5053591;28;45482;-77
2022/04/25 10:49:42;;;;;;;;;14.50;9.25;;;;;23.17;30.41;100293.22;5041358;28;45501;-79
2022/04/25 10:55:12;;;;;;;;;19.50;18.00;;;;;22.72;30.93;100301.09;5072105;28;45370;-77
2022/04/25 10:57:58;;;;;;;;;20.00;17.00;;;;;22.78;31.30;100297.09;5054231;28;45494;-76
2022/04/25 11:00:41;;;;;;;;;16.50;15.75;;;;;22.82;30.49;100296.75;5072804;28;45676;-77
2022/04/25 11:03:12;;;;;;;;;19.75;16.00;;;;;23.09;30.18;100295.63;5071596;28;46090;-78
2022/04/25 11:05:50;;;;;;;;;20.00;18.00;;;;;23.19;28.75;100302.03;5076571;28;45413;-78
2022/04/25 11:08:18;;;;;;;;;27.50;22.75;;;;;23.17;29.48;100303.13;5041059;28;45453;-81
2022/04/25 11:11:02;;;;;;;;;19.75;19.25;;;;;23.48;28.77;100301.59;5056289;28;45539;-80
2022/04/25 11:13:33;;;;;;;;;17.00;15.75;;;;;23.77;28.61;100306.53;5055720;28;45491;-79
2022/04/25 11:16:22;;;;;;;;;10.50;8.25;;;;;24.17;27.83;100297.06;5056265;28;45538;-79
2022/04/25 11:19:08;;;;;;;;;23.50;19.75;;;;;24.14;27.77;100298.16;5065875;28;45454;-79
2022/04/25 11:21:33;;;;;;;;;14.25;13.75;;;;;24.09;27.34;100308.50;5077873;27;45394;-83
2022/04/25 11:24:01;;;;;;;;;19.00;18.50;;;;;24.06;28.42;100311.44;5078575;28;46061;-82
2022/04/25 11:26:26;;;;;;;;;17.50;15.00;;;;;24.24;28.26;100309.94;5081094;28;45346;-84
2022/04/25 11:29:01;;;;;;;;;18.75;15.25;;;;;24.63;28.58;100302.28;5096286;27;45354;-84
2022/04/25 11:31:28;;;;;;;;;17.50;17.50;;;;;24.08;27.57;100299.56;5098593;27;45276;-83
2022/04/25 11:33:56;;;;;;;;;21.25;16.25;;;;;23.34;27.91;100301.81;5082755;27;45470;-83
2022/04/25 11:36:23;;;;;;;;;15.00;15.00;;;;;23.14;28.48;100298.84;5109146;27;45416;-83
2022/04/25 11:41:35;;;;;;;;;16.75;13.75;;;;;23.85;27.44;100290.59;5121112;27;45437;-82
2022/04/25 11:44:01;;;;;;;;;12.75;10.00;;;;;24.26;27.39;100301.72;5119577;27;46062;-83
2022/04/25 11:46:32;;;;;;;;;19.75;19.25;;;;;24.24;27.90;100299.16;5083030;27;45380;-82
2022/04/25 11:48:58;;;;;;;;;18.75;14.50;;;;;24.71;26.80;100300.78;5078031;28;45495;-85
2022/04/25 11:51:31;;;;;;;;;12.50;11.25;;;;;24.68;25.81;100295.63;5096223;27;45431;-83